sensor_id;sensor_type;location;lat;lon;timestamp;P1;durP1;ratioP1;P2;durP2;ratioP2
57231;SDS011;43488;46.934;8.276;2023-10-13T13:18:15;640.47;;;421.40;;
57231;SDS011;43488;46.934;8.276;2023-10-13T13:20:43;631.70;;;444.63;;
57231;SDS011;43488;46.934;8.276;2023-10-13T13:23:23;640.38;;;446.20;;
57231;SDS011;43488;46.934;8.276;2023-10-13T13:25:52;636.22;;;456.10;;
57231;SDS011;43488;46.934;8.276;2023-10-13T13:28:42;646.40;;;450.42;;
57231;SDS011;43488;46.934;8.276;2023-10-13T13:31:17;658.92;;;402.02;;
57231;SDS011;43488;46.934;8.276;2023-10-13T13:33:45;840.53;;;341.90;;
57231;SDS011;43488;46.934;8.276;2023-10-13T13:36:12;675.08;;;478.90;;
57231;SDS011;43488;46.934;8.276;2023-10-13T13:38:44;666.60;;;524.80;;
57231;SDS011;43488;46.934;8.276;2023-10-13T13:41:21;662.35;;;526.65;;
57231;SDS011;43488;46.934;8.276;2023-10-13T13:43:49;655.28;;;535.67;;
57231;SDS011;43488;46.934;8.276;2023-10-13T13:46:17;659.05;;;586.40;;
57231;SDS011;43488;46.934;8.276;2023-10-13T13:48:59;686.72;;;594.55;;
57231;SDS011;43488;46.934;8.276;2023-10-13T13:51:33;680.53;;;609.17;;
57231;SDS011;43488;46.934;8.276;2023-10-13T13:54:04;691.50;;;619.85;;
57231;SDS011;43488;46.934;8.276;2023-10-13T13:56:34;719.03;;;646.33;;
57231;SDS011;43488;46.934;8.276;2023-10-13T13:59:05;727.60;;;654.58;;
57231;SDS011;43488;46.934;8.276;2023-10-13T14:01:35;704.35;;;632.47;;
57231;SDS011;43488;46.934;8.276;2023-10-13T14:04:04;699.95;;;627.95;;
57231;SDS011;43488;46.934;8.276;2023-10-13T14:09:01;729.15;;;656.47;;
57231;SDS011;43488;46.934;8.276;2023-10-13T14:11:59;722.22;;;650.63;;
57231;SDS011;43488;46.934;8.276;2023-10-13T14:14:45;711.28;;;640.88;;
57231;SDS011;43488;46.934;8.276;2023-10-13T14:17:23;692.95;;;623.38;;
57231;SDS011;43488;46.934;8.276;2023-10-13T14:19:58;712.67;;;642.13;;
57231;SDS011;43488;46.934;8.276;2023-10-13T14:22:25;704.22;;;633.97;;
57231;SDS011;43488;46.934;8.276;2023-10-13T14:24:53;711.30;;;641.25;;
57231;SDS011;43488;46.934;8.276;2023-10-13T14:27:24;678.83;;;609.65;;
57231;SDS011;43488;46.934;8.276;2023-10-13T14:29:52;711.05;;;640.15;;
57231;SDS011;43488;46.934;8.276;2023-10-13T14:32:20;690.30;;;620.55;;
57231;SDS011;43488;46.934;8.276;2023-10-13T14:34:51;700.15;;;629.08;;
57231;SDS011;43488;46.934;8.276;2023-10-13T14:37:22;678.38;;;606.38;;
57231;SDS011;43488;46.934;8.276;2023-10-13T14:39:53;690.35;;;618.40;;
57231;SDS011;43488;46.934;8.276;2023-10-13T14:42:24;671.45;;;598.70;;
57231;SDS011;43488;46.934;8.276;2023-10-13T14:44:52;695.65;;;622.25;;
57231;SDS011;43488;46.934;8.276;2023-10-13T14:47:24;680.90;;;607.33;;
57231;SDS011;43488;46.934;8.276;2023-10-13T14:49:54;701.63;;;627.05;;
57231;SDS011;43488;46.934;8.276;2023-10-13T14:52:26;678.67;;;598.55;;
57231;SDS011;43488;46.934;8.276;2023-10-13T14:54:53;677.88;;;598.95;;
57231;SDS011;43488;46.934;8.276;2023-10-13T14:57:24;671.88;;;593.17;;
57231;SDS011;43488;46.934;8.276;2023-10-13T14:59:52;675.15;;;606.75;;
57231;SDS011;43488;46.934;8.276;2023-10-13T15:02:20;689.03;;;618.20;;
57231;SDS011;43488;46.934;8.276;2023-10-13T15:04:48;679.05;;;608.17;;
57231;SDS011;43488;46.934;8.276;2023-10-13T15:07:17;670.58;;;598.28;;
57231;SDS011;43488;46.934;8.276;2023-10-13T15:09:46;677.50;;;604.53;;
57231;SDS011;43488;46.934;8.276;2023-10-13T15:12:13;667.75;;;589.85;;
57231;SDS011;43488;46.934;8.276;2023-10-13T15:14:41;671.38;;;597.38;;
57231;SDS011;43488;46.934;8.276;2023-10-13T15:17:10;688.60;;;613.92;;
57231;SDS011;43488;46.934;8.276;2023-10-13T15:19:38;679.65;;;604.42;;
57231;SDS011;43488;46.934;8.276;2023-10-13T15:22:05;674.05;;;597.22;;
57231;SDS011;43488;46.934;8.276;2023-10-13T15:24:33;672.65;;;589.95;;
57231;SDS011;43488;46.934;8.276;2023-10-13T15:27:10;675.42;;;577.92;;
57231;SDS011;43488;46.934;8.276;2023-10-13T15:29:38;704.03;;;590.72;;
57231;SDS011;43488;46.934;8.276;2023-10-13T15:32:05;692.25;;;584.90;;
57231;SDS011;43488;46.934;8.276;2023-10-13T15:34:42;700.35;;;577.78;;
57231;SDS011;43488;46.934;8.276;2023-10-13T15:37:12;716.25;;;522.80;;
57231;SDS011;43488;46.934;8.276;2023-10-13T15:39:42;768.63;;;517.13;;
57231;SDS011;43488;46.934;8.276;2023-10-13T15:42:09;717.05;;;486.15;;
57231;SDS011;43488;46.934;8.276;2023-10-13T15:44:37;828.15;;;503.65;;
57231;SDS011;43488;46.934;8.276;2023-10-13T15:47:09;803.90;;;460.73;;
57231;SDS011;43488;46.934;8.276;2023-10-13T15:49:38;794.78;;;490.65;;
57231;SDS011;43488;46.934;8.276;2023-10-13T15:52:08;685.40;;;451.70;;
57231;SDS011;43488;46.934;8.276;2023-10-13T15:54:37;707.92;;;456.20;;
57231;SDS011;43488;46.934;8.276;2023-10-13T15:57:04;656.72;;;432.52;;
57231;SDS011;43488;46.934;8.276;2023-10-13T15:59:33;691.17;;;436.30;;
57231;SDS011;43488;46.934;8.276;2023-10-13T16:02:03;694.83;;;423.00;;
57231;SDS011;43488;46.934;8.276;2023-10-13T16:04:38;647.83;;;437.15;;
57231;SDS011;43488;46.934;8.276;2023-10-13T16:07:05;669.78;;;458.13;;
57231;SDS011;43488;46.934;8.276;2023-10-13T16:09:36;652.95;;;454.10;;
57231;SDS011;43488;46.934;8.276;2023-10-13T16:12:05;696.40;;;398.80;;
57231;SDS011;43488;46.934;8.276;2023-10-13T16:14:33;651.17;;;409.65;;
57231;SDS011;43488;46.934;8.276;2023-10-13T16:17:02;680.63;;;449.75;;
57231;SDS011;43488;46.934;8.276;2023-10-13T16:19:31;708.60;;;454.40;;
57231;SDS011;43488;46.934;8.276;2023-10-13T16:21:58;704.67;;;400.52;;
57231;SDS011;43488;46.934;8.276;2023-10-13T16:24:25;728.42;;;443.63;;
57231;SDS011;43488;46.934;8.276;2023-10-13T16:26:53;684.65;;;400.65;;
57231;SDS011;43488;46.934;8.276;2023-10-13T16:29:22;754.97;;;441.38;;
57231;SDS011;43488;46.934;8.276;2023-10-13T16:31:49;799.67;;;426.95;;
57231;SDS011;43488;46.934;8.276;2023-10-13T16:34:17;818.53;;;432.88;;
57231;SDS011;43488;46.934;8.276;2023-10-13T16:36:45;711.60;;;441.83;;
57231;SDS011;43488;46.934;8.276;2023-10-13T16:39:14;777.80;;;432.27;;
57231;SDS011;43488;46.934;8.276;2023-10-13T16:41:43;645.25;;;440.80;;
57231;SDS011;43488;46.934;8.276;2023-10-13T16:44:13;665.40;;;440.35;;
57231;SDS011;43488;46.934;8.276;2023-10-13T16:46:42;702.33;;;440.88;;
57231;SDS011;43488;46.934;8.276;2023-10-13T16:49:10;704.25;;;385.00;;
57231;SDS011;43488;46.934;8.276;2023-10-13T16:51:38;716.22;;;390.40;;
57231;SDS011;43488;46.934;8.276;2023-10-13T16:54:07;665.28;;;389.13;;
57231;SDS011;43488;46.934;8.276;2023-10-13T16:56:36;731.70;;;439.38;;
57231;SDS011;43488;46.934;8.276;2023-10-13T16:59:04;713.85;;;389.05;;
57231;SDS011;43488;46.934;8.276;2023-10-13T17:01:33;697.30;;;387.60;;
57231;SDS011;43488;46.934;8.276;2023-10-13T17:04:01;725.42;;;432.80;;
57231;SDS011;43488;46.934;8.276;2023-10-13T17:06:31;720.30;;;379.23;;
57231;SDS011;43488;46.934;8.276;2023-10-13T17:08:59;738.08;;;440.25;;
57231;SDS011;43488;46.934;8.276;2023-10-13T17:11:32;721.47;;;383.05;;
57231;SDS011;43488;46.934;8.276;2023-10-13T17:13:59;716.53;;;377.30;;
57231;SDS011;43488;46.934;8.276;2023-10-13T17:16:29;719.78;;;381.27;;
57231;SDS011;43488;46.934;8.276;2023-10-13T17:18:58;737.03;;;436.67;;
57231;SDS011;43488;46.934;8.276;2023-10-13T17:21:26;742.67;;;430.42;;
57231;SDS011;43488;46.934;8.276;2023-10-13T17:23:57;727.75;;;384.13;;
57231;SDS011;43488;46.934;8.276;2023-10-13T17:26:27;683.88;;;388.98;;
57231;SDS011;43488;46.934;8.276;2023-10-13T17:28:56;715.95;;;452.17;;
57231;SDS011;43488;46.934;8.276;2023-10-13T17:31:29;651.00;;;374.38;;
57231;SDS011;43488;46.934;8.276;2023-10-13T17:33:58;677.97;;;441.70;;
57231;SDS011;43488;46.934;8.276;2023-10-13T17:36:26;667.17;;;442.65;;
57231;SDS011;43488;46.934;8.276;2023-10-13T17:38:55;659.78;;;413.58;;
57231;SDS011;43488;46.934;8.276;2023-10-13T17:41:23;640.35;;;366.25;;
57231;SDS011;43488;46.934;8.276;2023-10-13T17:43:51;654.00;;;432.00;;
57231;SDS011;43488;46.934;8.276;2023-10-13T17:46:19;701.22;;;439.17;;
57231;SDS011;43488;46.934;8.276;2023-10-13T17:48:48;704.35;;;383.30;;
57231;SDS011;43488;46.934;8.276;2023-10-13T17:51:16;714.83;;;379.75;;
57231;SDS011;43488;46.934;8.276;2023-10-13T17:53:43;718.08;;;440.00;;
57231;SDS011;43488;46.934;8.276;2023-10-13T17:56:12;705.03;;;440.23;;
57231;SDS011;43488;46.934;8.276;2023-10-13T17:58:42;704.42;;;384.58;;
57231;SDS011;43488;46.934;8.276;2023-10-13T18:01:15;723.95;;;435.70;;
57231;SDS011;43488;46.934;8.276;2023-10-13T18:03:49;668.60;;;439.63;;
57231;SDS011;43488;46.934;8.276;2023-10-13T18:06:20;722.47;;;439.17;;
57231;SDS011;43488;46.934;8.276;2023-10-13T18:08:50;739.53;;;351.90;;
57231;SDS011;43488;46.934;8.276;2023-10-13T18:11:21;731.28;;;371.92;;
57231;SDS011;43488;46.934;8.276;2023-10-13T18:13:50;735.75;;;370.92;;
57231;SDS011;43488;46.934;8.276;2023-10-13T18:16:19;776.47;;;428.63;;
57231;SDS011;43488;46.934;8.276;2023-10-13T18:21:20;737.55;;;428.27;;
57231;SDS011;43488;46.934;8.276;2023-10-13T18:23:49;721.97;;;376.58;;
57231;SDS011;43488;46.934;8.276;2023-10-13T18:26:19;726.27;;;377.37;;
57231;SDS011;43488;46.934;8.276;2023-10-13T18:28:47;725.35;;;373.38;;
57231;SDS011;43488;46.934;8.276;2023-10-13T18:31:21;724.40;;;367.92;;
57231;SDS011;43488;46.934;8.276;2023-10-13T18:33:49;725.53;;;372.02;;
57231;SDS011;43488;46.934;8.276;2023-10-13T18:36:18;721.30;;;365.83;;
57231;SDS011;43488;46.934;8.276;2023-10-13T18:38:50;730.85;;;397.35;;
57231;SDS011;43488;46.934;8.276;2023-10-13T18:41:18;744.88;;;431.60;;
57231;SDS011;43488;46.934;8.276;2023-10-13T18:43:49;726.22;;;368.67;;
57231;SDS011;43488;46.934;8.276;2023-10-13T18:46:18;723.47;;;360.98;;
57231;SDS011;43488;46.934;8.276;2023-10-13T18:48:53;730.70;;;369.70;;
57231;SDS011;43488;46.934;8.276;2023-10-13T18:51:28;720.08;;;425.45;;
57231;SDS011;43488;46.934;8.276;2023-10-13T18:53:59;729.70;;;433.90;;
57231;SDS011;43488;46.934;8.276;2023-10-13T18:56:28;709.83;;;370.75;;
57231;SDS011;43488;46.934;8.276;2023-10-13T18:58:55;712.33;;;435.88;;
57231;SDS011;43488;46.934;8.276;2023-10-13T19:01:23;690.60;;;362.63;;
57231;SDS011;43488;46.934;8.276;2023-10-13T19:03:55;742.67;;;425.63;;
57231;SDS011;43488;46.934;8.276;2023-10-13T19:06:31;757.00;;;369.25;;
57231;SDS011;43488;46.934;8.276;2023-10-13T19:09:00;783.38;;;428.70;;
57231;SDS011;43488;46.934;8.276;2023-10-13T19:11:31;760.42;;;360.52;;
57231;SDS011;43488;46.934;8.276;2023-10-13T19:14:02;774.25;;;433.52;;
57231;SDS011;43488;46.934;8.276;2023-10-13T19:16:39;765.25;;;433.45;;
57231;SDS011;43488;46.934;8.276;2023-10-13T19:19:07;746.58;;;362.90;;
57231;SDS011;43488;46.934;8.276;2023-10-13T19:21:34;744.88;;;358.02;;
57231;SDS011;43488;46.934;8.276;2023-10-13T19:24:05;745.30;;;423.45;;
57231;SDS011;43488;46.934;8.276;2023-10-13T19:26:33;715.75;;;431.50;;
57231;SDS011;43488;46.934;8.276;2023-10-13T19:29:02;743.13;;;429.63;;
57231;SDS011;43488;46.934;8.276;2023-10-13T19:31:32;703.50;;;422.52;;
57231;SDS011;43488;46.934;8.276;2023-10-13T19:34:02;739.42;;;367.33;;
57231;SDS011;43488;46.934;8.276;2023-10-13T19:36:31;739.08;;;370.67;;
57231;SDS011;43488;46.934;8.276;2023-10-13T19:39:00;732.08;;;370.15;;
57231;SDS011;43488;46.934;8.276;2023-10-13T19:41:30;726.13;;;356.10;;
57231;SDS011;43488;46.934;8.276;2023-10-13T19:43:59;736.75;;;422.23;;
57231;SDS011;43488;46.934;8.276;2023-10-13T19:46:34;673.53;;;359.95;;
57231;SDS011;43488;46.934;8.276;2023-10-13T19:49:04;737.92;;;359.95;;
57231;SDS011;43488;46.934;8.276;2023-10-13T19:51:31;740.92;;;353.13;;
57231;SDS011;43488;46.934;8.276;2023-10-13T19:54:00;697.28;;;428.45;;
57231;SDS011;43488;46.934;8.276;2023-10-13T19:56:31;705.08;;;359.60;;
57231;SDS011;43488;46.934;8.276;2023-10-13T19:58:59;683.55;;;358.33;;
57231;SDS011;43488;46.934;8.276;2023-10-13T20:04:01;642.95;;;355.02;;
57231;SDS011;43488;46.934;8.276;2023-10-13T20:06:32;705.25;;;423.23;;
57231;SDS011;43488;46.934;8.276;2023-10-13T20:09:00;718.40;;;426.60;;
57231;SDS011;43488;46.934;8.276;2023-10-13T20:11:35;682.58;;;360.08;;
57231;SDS011;43488;46.934;8.276;2023-10-13T20:14:03;711.38;;;358.95;;
57231;SDS011;43488;46.934;8.276;2023-10-13T20:16:31;708.17;;;364.67;;
57231;SDS011;43488;46.934;8.276;2023-10-13T20:18:59;729.05;;;431.42;;
57231;SDS011;43488;46.934;8.276;2023-10-13T20:21:27;708.95;;;356.15;;
57231;SDS011;43488;46.934;8.276;2023-10-13T20:23:58;718.40;;;424.70;;
57231;SDS011;43488;46.934;8.276;2023-10-13T20:26:28;710.47;;;358.45;;
57231;SDS011;43488;46.934;8.276;2023-10-13T20:28:57;728.33;;;423.15;;
57231;SDS011;43488;46.934;8.276;2023-10-13T20:31:25;713.33;;;350.40;;
57231;SDS011;43488;46.934;8.276;2023-10-13T20:33:52;695.75;;;418.48;;
57231;SDS011;43488;46.934;8.276;2023-10-13T20:36:24;705.28;;;416.95;;
57231;SDS011;43488;46.934;8.276;2023-10-13T20:38:51;713.55;;;367.52;;
57231;SDS011;43488;46.934;8.276;2023-10-13T20:41:18;716.83;;;418.20;;
57231;SDS011;43488;46.934;8.276;2023-10-13T20:43:52;756.60;;;422.05;;
57231;SDS011;43488;46.934;8.276;2023-10-13T20:46:21;746.55;;;355.98;;
57231;SDS011;43488;46.934;8.276;2023-10-13T20:48:49;747.13;;;429.77;;
57231;SDS011;43488;46.934;8.276;2023-10-13T20:51:16;725.05;;;411.65;;
57231;SDS011;43488;46.934;8.276;2023-10-13T20:53:44;719.15;;;361.60;;
57231;SDS011;43488;46.934;8.276;2023-10-13T20:56:13;725.75;;;423.83;;
57231;SDS011;43488;46.934;8.276;2023-10-13T20:58:43;718.10;;;367.08;;
57231;SDS011;43488;46.934;8.276;2023-10-13T21:01:14;673.33;;;426.52;;
57231;SDS011;43488;46.934;8.276;2023-10-13T21:03:42;683.60;;;420.20;;
57231;SDS011;43488;46.934;8.276;2023-10-13T21:06:09;648.33;;;362.33;;
57231;SDS011;43488;46.934;8.276;2023-10-13T21:08:37;649.80;;;353.88;;
57231;SDS011;43488;46.934;8.276;2023-10-13T21:11:12;672.63;;;419.42;;
57231;SDS011;43488;46.934;8.276;2023-10-13T21:13:41;684.17;;;353.42;;
57231;SDS011;43488;46.934;8.276;2023-10-13T21:16:09;658.33;;;351.42;;
57231;SDS011;43488;46.934;8.276;2023-10-13T21:18:39;654.85;;;362.35;;
57231;SDS011;43488;46.934;8.276;2023-10-13T21:21:09;658.35;;;349.35;;
57231;SDS011;43488;46.934;8.276;2023-10-13T21:23:48;693.42;;;427.85;;
57231;SDS011;43488;46.934;8.276;2023-10-13T21:26:20;691.80;;;417.65;;
57231;SDS011;43488;46.934;8.276;2023-10-13T21:28:53;641.90;;;354.90;;
57231;SDS011;43488;46.934;8.276;2023-10-13T21:31:21;670.72;;;353.45;;
57231;SDS011;43488;46.934;8.276;2023-10-13T21:33:50;660.75;;;354.25;;
57231;SDS011;43488;46.934;8.276;2023-10-13T21:36:22;620.78;;;348.85;;
57231;SDS011;43488;46.934;8.276;2023-10-13T21:38:53;628.92;;;349.48;;
57231;SDS011;43488;46.934;8.276;2023-10-13T21:41:21;652.05;;;348.83;;
57231;SDS011;43488;46.934;8.276;2023-10-13T21:43:51;671.10;;;361.17;;
57231;SDS011;43488;46.934;8.276;2023-10-13T21:46:21;672.97;;;353.38;;
57231;SDS011;43488;46.934;8.276;2023-10-13T21:51:20;651.75;;;336.02;;
57231;SDS011;43488;46.934;8.276;2023-10-13T21:53:51;686.92;;;346.92;;
57231;SDS011;43488;46.934;8.276;2023-10-13T21:56:22;698.60;;;358.92;;
57231;SDS011;43488;46.934;8.276;2023-10-13T21:58:56;689.10;;;360.63;;
57231;SDS011;43488;46.934;8.276;2023-10-13T22:01:24;676.53;;;346.45;;
57231;SDS011;43488;46.934;8.276;2023-10-13T22:04:01;685.45;;;349.05;;
57231;SDS011;43488;46.934;8.276;2023-10-13T22:06:36;744.08;;;428.20;;
57231;SDS011;43488;46.934;8.276;2023-10-13T22:09:06;726.60;;;361.25;;
57231;SDS011;43488;46.934;8.276;2023-10-13T22:11:38;724.28;;;422.02;;
57231;SDS011;43488;46.934;8.276;2023-10-13T22:14:06;725.78;;;424.08;;
57231;SDS011;43488;46.934;8.276;2023-10-13T22:16:34;706.38;;;349.98;;
57231;SDS011;43488;46.934;8.276;2023-10-13T22:19:01;711.67;;;367.48;;
57231;SDS011;43488;46.934;8.276;2023-10-13T22:21:29;710.92;;;422.95;;
57231;SDS011;43488;46.934;8.276;2023-10-13T22:23:58;704.95;;;420.60;;
57231;SDS011;43488;46.934;8.276;2023-10-13T22:26:29;624.90;;;338.80;;
57231;SDS011;43488;46.934;8.276;2023-10-13T22:28:57;622.80;;;338.95;;
57231;SDS011;43488;46.934;8.276;2023-10-13T22:31:25;690.97;;;345.92;;
57231;SDS011;43488;46.934;8.276;2023-10-13T22:33:52;734.67;;;423.35;;
57231;SDS011;43488;46.934;8.276;2023-10-13T22:36:21;730.65;;;423.15;;
57231;SDS011;43488;46.934;8.276;2023-10-13T22:38:50;720.28;;;421.33;;
57231;SDS011;43488;46.934;8.276;2023-10-13T22:41:23;713.20;;;421.02;;
57231;SDS011;43488;46.934;8.276;2023-10-13T22:44:00;704.55;;;349.63;;
57231;SDS011;43488;46.934;8.276;2023-10-13T22:46:34;715.15;;;422.63;;
57231;SDS011;43488;46.934;8.276;2023-10-13T22:49:01;701.30;;;351.73;;
57231;SDS011;43488;46.934;8.276;2023-10-13T22:51:28;712.25;;;415.17;;
57231;SDS011;43488;46.934;8.276;2023-10-13T22:53:58;701.53;;;352.90;;
57231;SDS011;43488;46.934;8.276;2023-10-13T22:56:25;711.70;;;351.02;;
57231;SDS011;43488;46.934;8.276;2023-10-13T22:58:53;719.63;;;421.13;;
57231;SDS011;43488;46.934;8.276;2023-10-13T23:01:22;717.40;;;356.30;;
57231;SDS011;43488;46.934;8.276;2023-10-13T23:03:49;671.72;;;346.80;;
57231;SDS011;43488;46.934;8.276;2023-10-13T23:06:23;737.22;;;365.05;;
57231;SDS011;43488;46.934;8.276;2023-10-13T23:09:00;748.92;;;349.83;;
57231;SDS011;43488;46.934;8.276;2023-10-13T23:11:39;644.45;;;419.13;;
57231;SDS011;43488;46.934;8.276;2023-10-13T23:14:06;639.42;;;347.77;;
57231;SDS011;43488;46.934;8.276;2023-10-13T23:16:38;719.78;;;425.58;;
57231;SDS011;43488;46.934;8.276;2023-10-13T23:19:06;737.25;;;350.73;;
57231;SDS011;43488;46.934;8.276;2023-10-13T23:21:35;760.03;;;419.08;;
57231;SDS011;43488;46.934;8.276;2023-10-13T23:24:04;706.05;;;425.65;;
57231;SDS011;43488;46.934;8.276;2023-10-13T23:26:37;659.25;;;418.85;;
57231;SDS011;43488;46.934;8.276;2023-10-13T23:29:05;656.15;;;347.77;;
57231;SDS011;43488;46.934;8.276;2023-10-13T23:31:37;678.05;;;431.05;;
57231;SDS011;43488;46.934;8.276;2023-10-13T23:34:04;637.65;;;339.90;;
57231;SDS011;43488;46.934;8.276;2023-10-13T23:36:32;636.35;;;406.52;;
57231;SDS011;43488;46.934;8.276;2023-10-13T23:38:59;664.25;;;356.80;;
57231;SDS011;43488;46.934;8.276;2023-10-13T23:41:36;664.75;;;416.35;;
57231;SDS011;43488;46.934;8.276;2023-10-13T23:44:08;670.38;;;422.08;;
57231;SDS011;43488;46.934;8.276;2023-10-13T23:46:41;682.70;;;357.58;;
57231;SDS011;43488;46.934;8.276;2023-10-13T23:49:13;664.97;;;426.92;;
57231;SDS011;43488;46.934;8.276;2023-10-13T23:54:20;695.45;;;421.83;;
57231;SDS011;43488;46.934;8.276;2023-10-13T23:56:48;607.92;;;404.35;;
57231;SDS011;43488;46.934;8.276;2023-10-13T23:59:18;644.03;;;342.65;;
